Schinnen, Netherlands
Current Conditions -  °F | °C
As of 2:25 AM on Wednesday 26 Nov 2014 (Local Time) from EHBK Reporting Station
Clear Clear  
Wind Chill: 35°   Ceiling: Unl
Heat Index: 41°   Visibility: 4mi
Dew Point: 37°   Wind: 9mph
Humidity: 87%   Direction: 90°E
Pressure: 30.03"   Gusts: NA
Location:  50.94°N, 5.89°E
Report Text: EHBK 260125Z AUTO 09008KT 7000 NSC 05/03 Q1017
Loading
Personal Weather Stations






























Interactive Weather Map New forecast layout! Learn more

10-Day Weather Forecast

Advertisements
Track Severe Weather on mobile